createdAt,value
2017-07-22T00:00:50.137Z,7.2
2017-07-22T00:01:49.223Z,7.2
2017-07-22T00:02:48.924Z,7.1
2017-07-22T00:03:48.013Z,7.2
2017-07-22T00:04:47.221Z,7.2
2017-07-22T00:05:46.927Z,7.2
2017-07-22T00:06:46.123Z,7.2
2017-07-22T00:07:45.325Z,7.2
2017-07-22T00:08:45.029Z,7.2
2017-07-22T00:09:44.254Z,7.2
2017-07-22T00:10:43.469Z,7.1
2017-07-22T00:11:42.671Z,7.1
2017-07-22T00:12:42.259Z,7.1
2017-07-22T00:13:41.355Z,7.2
2017-07-22T00:14:40.926Z,7.1
2017-07-22T00:15:40.125Z,7.1
2017-07-22T00:16:39.712Z,7.1
2017-07-22T00:17:10.223Z,7.1
2017-07-22T00:18:37.989Z,7.1
2017-07-22T00:19:37.565Z,7.1
2017-07-22T00:20:36.650Z,7.1
2017-07-22T00:22:35.633Z,7
2017-07-22T00:23:34.838Z,7
2017-07-22T00:25:33.833Z,7
2017-07-22T00:26:33.036Z,7
2017-07-22T00:27:03.567Z,7
2017-07-22T00:27:34.076Z,7
2017-07-22T00:28:04.593Z,7
2017-07-22T00:28:35.110Z,7
2017-07-22T00:29:05.612Z,7
2017-07-22T00:29:36.186Z,7
2017-07-22T00:30:06.576Z,7
2017-07-22T00:31:29.948Z,6.9
2017-07-22T00:32:29.042Z,6.9
2017-07-22T00:33:28.247Z,6.9
2017-07-22T00:34:27.834Z,6.9
2017-07-22T00:35:26.912Z,6.9
2017-07-22T00:36:26.500Z,6.8
2017-07-22T00:37:26.082Z,6.8
2017-07-22T00:38:25.267Z,6.8
2017-07-22T00:38:55.716Z,6.8
2017-07-22T00:39:26.321Z,6.9
2017-07-22T00:39:56.811Z,6.9
2017-07-22T00:40:27.198Z,6.8
2017-07-22T00:40:57.712Z,6.8
2017-07-22T00:42:22.585Z,6.8
2017-07-22T00:43:21.657Z,6.8
2017-07-22T00:44:21.358Z,6.8
2017-07-22T00:45:20.554Z,6.8
2017-07-22T00:46:19.755Z,6.8
2017-07-22T00:47:19.472Z,6.8
2017-07-22T00:48:18.682Z,6.8
2017-07-22T00:49:17.774Z,6.8
2017-07-22T00:50:17.481Z,6.8
2017-07-22T00:51:16.677Z,6.7
2017-07-22T00:52:15.883Z,6.7
2017-07-22T00:53:15.073Z,6.7
2017-07-22T00:54:14.663Z,6.7
2017-07-22T00:55:14.250Z,6.7
2017-07-22T00:56:13.339Z,6.7
2017-07-22T00:57:12.557Z,6.7
2017-07-22T00:57:42.951Z,6.7
2017-07-22T00:58:13.448Z,6.7
2017-07-22T00:58:43.960Z,6.7
2017-07-22T01:00:10.835Z,6.7
2017-07-22T01:01:10.047Z,6.7
2017-07-22T01:02:09.132Z,6.7
2017-07-22T01:03:08.835Z,6.7
2017-07-22T01:04:07.793Z,6.7
2017-07-22T01:05:07.494Z,6.7
2017-07-22T01:06:06.469Z,6.7
2017-07-22T01:07:06.062Z,6.7
2017-07-22T01:08:05.257Z,6.7
2017-07-22T01:08:35.661Z,6.7
2017-07-22T01:09:06.166Z,6.7
2017-07-22T01:09:36.675Z,6.7
2017-07-22T01:10:07.069Z,6.7
2017-07-22T01:10:37.355Z,6.7
2017-07-22T01:11:07.898Z,6.7
2017-07-22T01:11:38.428Z,6.7
2017-07-22T01:13:02.163Z,6.7
2017-07-22T01:14:01.254Z,6.6
2017-07-22T01:15:00.844Z,6.7
2017-07-22T01:15:59.806Z,6.7
2017-07-22T01:16:59.398Z,6.7
2017-07-22T01:17:58.613Z,6.7
2017-07-22T01:18:58.352Z,6.7
2017-07-22T01:19:57.550Z,6.7
2017-07-22T01:20:28.056Z,6.7
2017-07-22T01:20:58.437Z,6.7
2017-07-22T01:21:28.823Z,6.7
2017-07-22T01:21:59.352Z,6.7
2017-07-22T01:22:29.857Z,6.7
2017-07-22T01:23:00.252Z,6.8
2017-07-22T01:23:54.925Z,6.8
2017-07-22T01:24:54.066Z,6.8
2017-07-22T01:25:53.775Z,6.8
2017-07-22T01:26:52.967Z,6.9
2017-07-22T01:27:52.171Z,6.9
2017-07-22T01:28:51.375Z,6.9
2017-07-22T01:29:51.079Z,6.9
2017-07-22T01:30:50.270Z,6.9
2017-07-22T01:31:49.471Z,6.9
2017-07-22T01:32:49.171Z,6.9
2017-07-22T01:33:48.382Z,6.9
2017-07-22T01:34:47.600Z,6.9
2017-07-22T01:35:46.809Z,6.9
2017-07-22T01:36:46.397Z,6.9
2017-07-22T01:37:45.473Z,6.9
2017-07-22T01:38:45.171Z,6.9
2017-07-22T01:39:44.368Z,6.9
2017-07-22T01:40:43.576Z,6.9
2017-07-22T01:41:42.672Z,6.9
2017-07-22T01:42:42.261Z,6.9
2017-07-22T01:43:41.728Z,6.9
2017-07-22T01:44:40.930Z,6.9
2017-07-22T01:45:40.015Z,6.9
2017-07-22T01:46:39.583Z,6.9
2017-07-22T01:47:39.626Z,6.9
2017-07-22T01:48:38.207Z,6.9
2017-07-22T01:49:37.908Z,6.9
2017-07-22T01:50:37.106Z,6.9
2017-07-22T01:51:36.073Z,6.9
2017-07-22T01:52:35.764Z,6.9
2017-07-22T01:53:34.959Z,6.8
2017-07-22T01:54:34.676Z,6.8
2017-07-22T01:55:33.749Z,6.8
2017-07-22T01:56:32.958Z,6.8
2017-07-22T01:57:32.672Z,6.8
2017-07-22T01:58:31.767Z,6.8
2017-07-22T01:59:30.839Z,6.8
2017-07-22T02:00:30.542Z,6.8
2017-07-22T02:01:29.515Z,6.8
2017-07-22T02:02:29.104Z,6.8
2017-07-22T02:03:28.308Z,6.8
2017-07-22T02:04:28.018Z,6.8
2017-07-22T02:05:27.232Z,6.8
2017-07-22T02:06:26.318Z,6.8
2017-07-22T02:06:56.711Z,6.8
2017-07-22T02:07:27.225Z,6.8
2017-07-22T02:07:57.737Z,6.8
2017-07-22T02:09:24.622Z,6.8
2017-07-22T02:10:23.708Z,6.8
2017-07-22T02:11:23.415Z,6.8
2017-07-22T02:12:22.616Z,6.8
2017-07-22T02:13:21.690Z,6.8
2017-07-22T02:14:21.390Z,6.8
2017-07-22T02:15:20.470Z,6.7
2017-07-22T02:16:19.558Z,6.8
2017-07-22T02:16:50.109Z,6.8
2017-07-22T02:17:20.640Z,6.8
2017-07-22T02:17:51.145Z,6.8
2017-07-22T02:18:21.554Z,6.7
2017-07-22T02:18:52.072Z,6.7
2017-07-22T02:20:17.081Z,6.7
2017-07-22T02:21:16.800Z,6.7
2017-07-22T02:22:16.001Z,6.7
2017-07-22T02:23:15.080Z,6.8
2017-07-22T02:24:14.544Z,6.7
2017-07-22T02:25:13.756Z,6.7
2017-07-22T02:26:13.455Z,6.7
2017-07-22T02:27:12.557Z,6.7
2017-07-22T02:28:11.756Z,6.8
2017-07-22T02:28:42.280Z,6.8
2017-07-22T02:29:12.790Z,6.7
2017-07-22T02:29:43.306Z,6.7
2017-07-22T02:31:10.207Z,6.7
2017-07-22T02:32:09.421Z,6.7
2017-07-22T02:33:08.622Z,6.7
2017-07-22T02:34:08.203Z,6.7
2017-07-22T02:35:07.291Z,6.7
2017-07-22T02:36:06.368Z,6.7
2017-07-22T02:37:05.961Z,6.7
2017-07-22T02:38:05.165Z,6.7
2017-07-22T02:39:04.754Z,6.7
2017-07-22T02:40:14.476Z,6.7
2017-07-22T02:42:02.492Z,6.8
2017-07-22T02:43:02.084Z,6.7
2017-07-22T02:44:01.276Z,6.7
2017-07-22T02:45:00.358Z,6.7
2017-07-22T02:45:59.951Z,6.7
2017-07-22T02:46:59.164Z,6.7
2017-07-22T02:47:29.560Z,6.7
2017-07-22T02:47:59.956Z,6.7
2017-07-22T02:48:29.999Z,6.7
2017-07-22T02:49:57.403Z,6.7
2017-07-22T02:50:56.591Z,6.7
2017-07-22T02:52:55.194Z,6.7
2017-07-22T02:53:54.893Z,6.7
2017-07-22T02:54:54.085Z,6.7
2017-07-22T02:55:53.278Z,6.7
2017-07-22T02:56:52.992Z,6.7
2017-07-22T02:57:52.069Z,6.7
2017-07-22T02:58:22.481Z,6.7
2017-07-22T02:58:53.000Z,6.7
2017-07-22T02:59:23.524Z,6.7
2017-07-22T02:59:54.029Z,6.6
2017-07-22T03:00:24.430Z,6.6
2017-07-22T03:01:49.299Z,6.7
2017-07-22T03:03:47.893Z,6.6
2017-07-22T03:04:47.595Z,6.7
2017-07-22T03:05:46.797Z,6.6
2017-07-22T03:06:46.380Z,6.6
2017-07-22T03:07:45.466Z,6.6
2017-07-22T03:08:44.558Z,6.6
2017-07-22T03:09:44.260Z,6.6
2017-07-22T03:10:14.772Z,6.6
2017-07-22T03:11:42.662Z,6.6
2017-07-22T03:12:42.366Z,6.6
2017-07-22T03:13:41.567Z,6.6
2017-07-22T03:14:40.769Z,6.6
2017-07-22T03:15:39.983Z,6.6
2017-07-22T03:16:39.563Z,6.6
2017-07-22T03:17:38.648Z,6.6
2017-07-22T03:18:38.352Z,6.6
2017-07-22T03:19:37.550Z,6.6
2017-07-22T03:20:36.623Z,6.6
2017-07-22T03:21:36.335Z,6.6
2017-07-22T03:22:35.415Z,6.6
2017-07-22T03:23:34.487Z,6.6
2017-07-22T03:24:34.195Z,6.6
2017-07-22T03:25:33.276Z,6.6
2017-07-22T03:26:32.869Z,6.6
2017-07-22T03:27:31.837Z,6.6
2017-07-22T03:28:31.540Z,6.6
2017-07-22T03:29:30.496Z,6.6
2017-07-22T03:30:30.205Z,6.6
2017-07-22T03:31:00.733Z,6.6
2017-07-22T03:31:31.249Z,6.6
2017-07-22T03:32:28.824Z,6.6
2017-07-22T03:33:28.036Z,6.6
2017-07-22T03:34:27.739Z,6.6
2017-07-22T03:35:26.953Z,6.6
2017-07-22T03:36:26.040Z,6.6
2017-07-22T03:37:25.741Z,6.6
2017-07-22T03:38:24.708Z,6.6
2017-07-22T03:39:24.302Z,6.6
2017-07-22T03:41:22.896Z,6.7
2017-07-22T03:42:22.090Z,6.7
2017-07-22T03:43:21.809Z,6.7
2017-07-22T03:44:21.003Z,6.7
2017-07-22T03:45:20.222Z,6.7
2017-07-22T03:46:19.419Z,6.7
2017-07-22T03:47:18.889Z,6.7
2017-07-22T03:48:18.101Z,6.7
2017-07-22T03:49:17.808Z,6.7
2017-07-22T03:50:17.005Z,6.7
2017-07-22T03:51:16.092Z,6.7
2017-07-22T03:52:15.796Z,6.7
2017-07-22T03:53:14.998Z,6.8
2017-07-22T03:54:14.200Z,6.8
2017-07-22T03:55:13.406Z,6.8
2017-07-22T03:55:43.918Z,6.8
2017-07-22T03:56:14.444Z,6.8
2017-07-22T03:56:44.960Z,6.8
2017-07-22T03:57:15.458Z,6.7
2017-07-22T03:57:45.842Z,6.7
2017-07-22T03:59:10.717Z,6.7
2017-07-22T04:00:10.187Z,6.7
2017-07-22T04:01:09.380Z,6.7
2017-07-22T04:02:08.837Z,6.6
2017-07-22T04:03:07.909Z,6.6
2017-07-22T04:04:07.511Z,6.6
2017-07-22T04:05:06.716Z,6.5
2017-07-22T04:05:37.212Z,6.5
2017-07-22T04:06:07.606Z,6.5
2017-07-22T04:06:38.125Z,6.5
2017-07-22T04:07:08.524Z,6.5
2017-07-22T04:07:39.037Z,6.5
2017-07-22T04:08:09.549Z,6.4
2017-07-22T04:08:40.067Z,6.4
2017-07-22T04:10:03.194Z,6.3
2017-07-22T04:11:02.908Z,6.3
2017-07-22T04:12:02.098Z,6.3
2017-07-22T04:13:01.569Z,6.3
2017-07-22T04:14:00.767Z,6.3
2017-07-22T04:15:00.491Z,6.2
2017-07-22T04:15:59.694Z,6.3
2017-07-22T04:16:58.900Z,6.3
2017-07-22T04:17:57.973Z,6.2
2017-07-22T04:18:57.558Z,6.2
2017-07-22T04:19:28.066Z,6.2
2017-07-22T04:19:58.576Z,6.2
2017-07-22T04:20:56.275Z,6.2
2017-07-22T04:21:55.355Z,6.2
2017-07-22T04:22:54.934Z,6.2
2017-07-22T04:23:54.147Z,6.1
2017-07-22T04:24:53.624Z,6.1
2017-07-22T04:25:24.134Z,6.1
2017-07-22T04:26:52.407Z,6.1
2017-07-22T04:27:51.500Z,6.1
2017-07-22T04:28:51.087Z,6.1
2017-07-22T04:29:50.290Z,6.1
2017-07-22T04:30:49.362Z,6
2017-07-22T04:31:48.965Z,6
2017-07-22T04:32:48.173Z,6
2017-07-22T04:33:47.363Z,6
2017-07-22T04:34:47.062Z,6
2017-07-22T04:35:46.247Z,6
2017-07-22T04:36:16.782Z,6
2017-07-22T04:36:47.190Z,6
2017-07-22T04:37:17.582Z,6
2017-07-22T04:37:48.083Z,6
2017-07-22T04:38:18.127Z,6
2017-07-22T04:38:49.022Z,6
2017-07-22T04:39:19.530Z,6
2017-07-22T04:40:42.901Z,6
2017-07-22T04:41:41.992Z,6
2017-07-22T04:42:41.573Z,6
2017-07-22T04:43:40.774Z,6
2017-07-22T04:44:40.466Z,6
2017-07-22T04:45:39.436Z,6
2017-07-22T04:46:39.026Z,6
2017-07-22T04:47:09.541Z,6
2017-07-22T04:47:40.059Z,5.9
2017-07-22T04:48:10.473Z,5.9
2017-07-22T04:48:40.874Z,5.9
2017-07-22T04:49:11.386Z,5.9
2017-07-22T04:49:41.880Z,6
2017-07-22T04:50:12.149Z,6
2017-07-22T04:51:35.384Z,6
2017-07-22T04:52:35.114Z,5.9
2017-07-22T04:53:34.309Z,6
2017-07-22T04:54:33.521Z,6
2017-07-22T04:55:32.474Z,6
2017-07-22T04:56:32.089Z,6
2017-07-22T04:57:31.055Z,6
2017-07-22T04:58:30.766Z,6
2017-07-22T04:59:30.353Z,6
2017-07-22T05:00:29.545Z,5.9
2017-07-22T05:01:28.749Z,6
2017-07-22T05:02:27.814Z,6
2017-07-22T05:03:27.529Z,6
2017-07-22T05:04:26.744Z,6
2017-07-22T05:05:25.821Z,6
2017-07-22T05:06:25.522Z,6
2017-07-22T05:07:24.727Z,6
2017-07-22T05:08:23.923Z,6
2017-07-22T05:09:23.608Z,6
2017-07-22T05:10:22.804Z,6
2017-07-22T05:11:21.772Z,6
2017-07-22T05:12:21.468Z,6
2017-07-22T05:13:20.667Z,6
2017-07-22T05:14:19.749Z,6
2017-07-22T05:15:19.453Z,6
2017-07-22T05:16:18.650Z,6.1
2017-07-22T05:17:17.722Z,6.1
2017-07-22T05:18:17.306Z,6.1
2017-07-22T05:19:16.378Z,6.2
2017-07-22T05:19:46.757Z,6.2
2017-07-22T05:20:17.267Z,6.2
2017-07-22T05:21:15.467Z,6.2
2017-07-22T05:22:14.557Z,6.2
2017-07-22T05:23:14.247Z,6.3
2017-07-22T05:24:13.325Z,6.3
2017-07-22T05:25:12.526Z,6.3
2017-07-22T05:26:12.211Z,6.3
2017-07-22T05:27:11.180Z,6.3
2017-07-22T05:28:10.792Z,6.3
2017-07-22T05:29:09.992Z,6.3
2017-07-22T05:30:09.202Z,6.3
2017-07-22T05:31:08.392Z,6.3
2017-07-22T05:32:07.985Z,6.2
2017-07-22T05:33:07.078Z,6.2
2017-07-22T05:34:06.431Z,6.2
2017-07-22T05:35:06.126Z,6.2
2017-07-22T05:36:05.217Z,6.3
2017-07-22T05:37:04.183Z,6.3
2017-07-22T05:38:03.778Z,6.2
2017-07-22T05:39:03.482Z,6.2
2017-07-22T05:40:02.697Z,6.3
2017-07-22T05:41:01.898Z,6.3
2017-07-22T05:42:01.093Z,6.3
2017-07-22T05:43:00.795Z,6.3
2017-07-22T05:43:59.999Z,6.3
2017-07-22T05:44:59.192Z,6.3
2017-07-22T05:45:29.606Z,6.3
2017-07-22T05:46:00.139Z,6.4
2017-07-22T05:46:30.534Z,6.4
2017-07-22T05:47:01.053Z,6.3
2017-07-22T05:47:31.451Z,6.3
2017-07-22T05:48:56.318Z,6.4
2017-07-22T05:49:55.899Z,6.4
2017-07-22T05:50:55.123Z,6.5
2017-07-22T05:51:54.333Z,6.5
2017-07-22T05:52:53.815Z,6.5
2017-07-22T05:53:53.026Z,6.5
2017-07-22T05:54:52.610Z,6.5
2017-07-22T05:55:23.116Z,6.5
2017-07-22T05:55:53.631Z,6.5
2017-07-22T05:56:24.153Z,6.5
2017-07-22T05:56:54.561Z,6.5
2017-07-22T05:57:25.069Z,6.5
2017-07-22T05:58:49.957Z,6.5
2017-07-22T05:59:49.149Z,6.5
2017-07-22T06:00:48.342Z,6.5
2017-07-22T06:02:46.918Z,6.5
2017-07-22T06:03:46.605Z,6.5
2017-07-22T06:04:45.841Z,6.5
2017-07-22T06:05:45.055Z,6.6
2017-07-22T06:06:44.162Z,6.6
2017-07-22T06:07:43.862Z,6.6
2017-07-22T06:08:43.068Z,6.6
2017-07-22T06:09:42.273Z,6.6
2017-07-22T06:10:41.869Z,6.6
2017-07-22T06:11:41.069Z,6.6
2017-07-22T06:12:40.282Z,6.6
2017-07-22T06:13:39.633Z,6.6
2017-07-22T06:14:39.335Z,6.6
2017-07-22T06:15:09.838Z,6.6
2017-07-22T06:16:37.736Z,6.6
2017-07-22T06:17:36.806Z,6.6
2017-07-22T06:18:36.508Z,6.6
2017-07-22T06:19:35.725Z,6.6
2017-07-22T06:20:34.919Z,6.6
2017-07-22T06:21:34.619Z,6.6
2017-07-22T06:22:33.829Z,6.6
2017-07-22T06:23:33.041Z,6.6
2017-07-22T06:24:32.763Z,6.6
2017-07-22T06:25:03.296Z,6.6
2017-07-22T06:25:33.691Z,6.6
2017-07-22T06:26:04.207Z,6.6
2017-07-22T06:26:34.724Z,6.6
2017-07-22T06:27:05.116Z,6.6
2017-07-22T06:27:35.635Z,6.6
2017-07-22T06:28:06.039Z,6.6
2017-07-22T06:28:36.541Z,6.6
2017-07-22T06:29:07.057Z,6.6
2017-07-22T06:30:28.387Z,6.6
2017-07-22T06:31:28.101Z,6.6
2017-07-22T06:32:27.311Z,6.7
2017-07-22T06:33:26.520Z,6.7
2017-07-22T06:34:25.720Z,6.7
2017-07-22T06:35:25.311Z,6.8
2017-07-22T06:36:24.519Z,6.8
2017-07-22T06:36:55.021Z,6.8
2017-07-22T06:37:25.530Z,6.8
2017-07-22T06:37:56.050Z,6.8
2017-07-22T06:38:26.561Z,6.8
2017-07-22T06:38:57.067Z,6.8
2017-07-22T06:40:21.839Z,6.8
2017-07-22T06:41:21.427Z,6.9
2017-07-22T06:42:20.385Z,6.9
2017-07-22T06:43:19.969Z,6.9
2017-07-22T06:44:19.175Z,7
2017-07-22T06:45:18.383Z,7
2017-07-22T06:46:17.979Z,7.1
2017-07-22T06:47:17.065Z,7.1
2017-07-22T06:48:16.656Z,7.1
2017-07-22T06:49:15.744Z,7.1
2017-07-22T06:50:15.098Z,7.2
2017-07-22T06:51:14.795Z,7.3
2017-07-22T06:52:13.886Z,7.3
2017-07-22T06:53:12.847Z,7.4
2017-07-22T06:54:12.551Z,7.4
2017-07-22T06:55:11.736Z,7.4
2017-07-22T06:56:11.444Z,7.4
2017-07-22T06:57:10.639Z,7.5
2017-07-22T06:57:41.151Z,7.5
2017-07-22T06:58:11.658Z,7.5
2017-07-22T06:59:09.343Z,7.5
2017-07-22T07:00:08.538Z,7.6
2017-07-22T07:01:08.244Z,7.6
2017-07-22T07:02:07.331Z,7.6
2017-07-22T07:03:06.529Z,7.6
2017-07-22T07:04:06.242Z,7.7
2017-07-22T07:05:05.446Z,7.7
2017-07-22T07:06:04.656Z,7.7
2017-07-22T07:07:04.229Z,7.8
2017-07-22T07:08:03.424Z,7.8
2017-07-22T07:08:33.818Z,7.8
2017-07-22T07:10:02.232Z,7.9
2017-07-22T07:11:01.433Z,8
2017-07-22T07:12:01.130Z,8
2017-07-22T07:13:00.337Z,8
2017-07-22T07:13:59.302Z,8
2017-07-22T07:14:58.779Z,8.1
2017-07-22T07:15:58.238Z,8.1
2017-07-22T07:16:56.984Z,8.1
2017-07-22T07:17:57.191Z,8.2
2017-07-22T07:19:55.658Z,8.2
2017-07-22T07:20:54.850Z,8.3
2017-07-22T07:21:54.574Z,8.3
2017-07-22T07:22:53.661Z,8.4
2017-07-22T07:23:53.245Z,8.4
2017-07-22T07:24:23.762Z,8.4
2017-07-22T07:25:51.530Z,8.5
2017-07-22T07:26:51.135Z,8.5
2017-07-22T07:27:50.838Z,8.6
2017-07-22T07:28:49.684Z,8.7
2017-07-22T07:29:49.614Z,8.7
2017-07-22T07:30:48.832Z,8.7
2017-07-22T07:31:47.917Z,8.8
2017-07-22T07:32:47.621Z,8.8
2017-07-22T07:33:46.824Z,8.9
2017-07-22T07:34:17.211Z,8.9
2017-07-22T07:34:47.593Z,8.9
2017-07-22T07:35:17.989Z,8.9
2017-07-22T07:36:44.871Z,9
2017-07-22T07:37:44.072Z,9
2017-07-22T07:38:43.774Z,9
2017-07-22T07:39:42.980Z,9.1
2017-07-22T07:40:42.168Z,9.1
2017-07-22T07:41:41.881Z,9.1
2017-07-22T07:42:41.077Z,9.1
2017-07-22T07:43:40.277Z,9.1
2017-07-22T07:44:39.744Z,9.1
2017-07-22T07:45:39.206Z,9.2
2017-07-22T07:46:09.727Z,9.2
2017-07-22T07:47:37.999Z,9.2
2017-07-22T07:48:37.589Z,9.2
2017-07-22T07:49:36.795Z,9.3
2017-07-22T07:50:35.885Z,9.3
2017-07-22T07:51:35.588Z,9.3
2017-07-22T07:52:34.676Z,9.3
2017-07-22T07:53:34.267Z,9.4
2017-07-22T07:54:33.464Z,9.4
2017-07-22T07:55:33.183Z,9.4
2017-07-22T07:56:32.381Z,9.4
2017-07-22T07:57:31.464Z,9.5
2017-07-22T07:58:31.058Z,9.5
2017-07-22T07:59:30.758Z,9.5
2017-07-22T08:00:29.853Z,9.5
2017-07-22T08:01:29.555Z,9.5
2017-07-22T08:02:28.641Z,9.5
2017-07-22T08:03:28.237Z,9.5
2017-07-22T08:04:27.430Z,9.5
2017-07-22T08:04:57.828Z,9.5
2017-07-22T08:05:28.229Z,9.5
2017-07-22T08:05:58.740Z,9.5
2017-07-22T08:07:25.615Z,9.5
2017-07-22T08:08:25.210Z,9.5
2017-07-22T08:09:24.288Z,9.5
2017-07-22T08:10:23.875Z,9.5
2017-07-22T08:11:22.953Z,9.5
2017-07-22T08:12:22.657Z,9.5
2017-07-22T08:13:21.849Z,9.5
2017-07-22T08:14:21.563Z,9.5
2017-07-22T08:14:52.070Z,9.5
2017-07-22T08:15:22.471Z,9.5
2017-07-22T08:15:52.980Z,9.5
2017-07-22T08:16:23.378Z,9.5
2017-07-22T08:16:53.894Z,9.5
2017-07-22T08:17:24.294Z,9.5
2017-07-22T08:17:54.818Z,9.5
2017-07-22T08:18:25.091Z,9.5
2017-07-22T08:18:55.477Z,9.5
2017-07-22T08:20:17.714Z,9.5
2017-07-22T08:21:17.424Z,9.5
2017-07-22T08:22:16.510Z,9.5
2017-07-22T08:23:16.224Z,9.5
2017-07-22T08:24:15.421Z,9.5
2017-07-22T08:25:14.642Z,9.5
2017-07-22T08:26:13.989Z,9.5
2017-07-22T08:27:13.696Z,9.5
2017-07-22T08:27:44.096Z,9.5
2017-07-22T08:28:14.493Z,9.5
2017-07-22T08:28:44.773Z,9.5
2017-07-22T08:30:11.537Z,9.4
2017-07-22T08:31:11.236Z,9.4
2017-07-22T08:32:10.453Z,9.4
2017-07-22T08:33:10.171Z,9.4
2017-07-22T08:34:09.141Z,9.4
2017-07-22T08:35:08.738Z,9.4
2017-07-22T08:36:07.815Z,9.4
2017-07-22T08:37:07.526Z,9.4
2017-07-22T08:38:06.606Z,9.4
2017-07-22T08:39:06.299Z,9.4
2017-07-22T08:40:05.394Z,9.3
2017-07-22T08:41:05.096Z,9.3
2017-07-22T08:42:04.055Z,9.2
2017-07-22T08:43:03.757Z,9.2
2017-07-22T08:44:03.346Z,9.2
2017-07-22T08:45:02.561Z,9.2
2017-07-22T08:46:02.150Z,9.2
2017-07-22T08:47:01.362Z,9.2
2017-07-22T08:47:31.885Z,9.2
2017-07-22T08:48:02.288Z,9.2
2017-07-22T08:48:32.687Z,9.2
2017-07-22T08:49:03.205Z,9.2
2017-07-22T08:49:33.604Z,9.2
2017-07-22T08:50:03.999Z,9.2
2017-07-22T08:50:59.169Z,9.2
2017-07-22T08:52:57.771Z,9.2
2017-07-22T08:53:57.474Z,9.2
2017-07-22T08:54:56.674Z,9.2
2017-07-22T08:55:55.765Z,9.2
2017-07-22T08:56:55.474Z,9.2
2017-07-22T08:57:54.575Z,9.2
2017-07-22T08:58:24.976Z,9.2
2017-07-22T08:58:55.265Z,9.2
2017-07-22T08:59:25.655Z,9.2
2017-07-22T08:59:56.058Z,9.2
2017-07-22T09:00:53.141Z,9.2
2017-07-22T09:01:52.222Z,9.2
2017-07-22T09:02:51.922Z,9.2
2017-07-22T09:03:51.127Z,9.2
2017-07-22T09:04:50.829Z,9.2
2017-07-22T09:05:50.050Z,9.2
2017-07-22T09:06:49.242Z,9.2
2017-07-22T09:07:48.942Z,9.2
2017-07-22T09:08:48.160Z,9.2
2017-07-22T09:09:47.007Z,9.2
2017-07-22T09:10:47.222Z,9.3
2017-07-22T09:11:46.418Z,9.3
2017-07-22T09:12:45.623Z,9.3
2017-07-22T09:13:45.332Z,9.3
2017-07-22T09:15:43.929Z,9.3
2017-07-22T09:16:43.132Z,9.3
2017-07-22T09:17:42.727Z,9.3
2017-07-22T09:18:41.920Z,9.3
2017-07-22T09:19:41.622Z,9.3
2017-07-22T09:20:40.705Z,9.3
2017-07-22T09:21:40.416Z,9.3
2017-07-22T09:22:39.380Z,9.4
2017-07-22T09:23:39.081Z,9.4
2017-07-22T09:24:38.687Z,9.4
2017-07-22T09:25:09.099Z,9.4
2017-07-22T09:25:39.513Z,9.4
2017-07-22T09:26:09.902Z,9.4
2017-07-22T09:26:40.303Z,9.5
2017-07-22T09:27:10.698Z,9.5
2017-07-22T09:27:41.209Z,9.5
2017-07-22T09:28:36.381Z,9.5
2017-07-22T09:29:35.590Z,9.5
2017-07-22T09:30:34.679Z,9.5
2017-07-22T09:31:34.263Z,9.5
2017-07-22T09:32:33.986Z,9.6
2017-07-22T09:33:33.074Z,9.6
2017-07-22T09:34:32.785Z,9.6
2017-07-22T09:35:31.869Z,9.6
2017-07-22T09:36:31.335Z,9.6
2017-07-22T09:37:30.563Z,9.7
2017-07-22T09:38:30.152Z,9.7
2017-07-22T09:39:29.360Z,9.8
2017-07-22T09:40:29.075Z,9.8
2017-07-22T09:41:28.159Z,9.8
2017-07-22T09:42:27.867Z,9.8
2017-07-22T09:43:27.063Z,9.9
2017-07-22T09:44:26.765Z,9.9
2017-07-22T09:44:57.293Z,9.9
2017-07-22T09:45:27.810Z,10
2017-07-22T09:46:25.501Z,10
2017-07-22T09:47:24.584Z,10
2017-07-22T09:48:24.295Z,10
2017-07-22T09:49:23.506Z,10
2017-07-22T09:50:23.223Z,10
2017-07-22T09:51:22.424Z,10
2017-07-22T09:52:21.647Z,10
2017-07-22T09:53:21.359Z,10.1
2017-07-22T09:54:20.559Z,10.1
2017-07-22T09:54:51.064Z,10.1
2017-07-22T09:55:21.467Z,10.1
2017-07-22T09:55:51.880Z,10.1
2017-07-22T09:56:22.280Z,10.1
2017-07-22T09:56:52.789Z,10.1
2017-07-22T09:57:23.289Z,10.1
2017-07-22T09:57:53.796Z,10.1
2017-07-22T10:00:17.045Z,10.2
2017-07-22T10:01:16.236Z,10.2
2017-07-22T10:02:15.936Z,10.2
2017-07-22T10:03:15.146Z,10.2
2017-07-22T10:04:14.859Z,10.2
2017-07-22T10:05:13.950Z,10.2
2017-07-22T10:05:44.461Z,10.2
2017-07-22T10:06:14.734Z,10.2
2017-07-22T10:06:45.239Z,10.2
2017-07-22T10:07:15.740Z,10.2
2017-07-22T10:07:46.185Z,10.2
2017-07-22T10:08:16.711Z,10.2
2017-07-22T10:08:47.123Z,10.2
2017-07-22T10:09:17.641Z,10.2
2017-07-22T10:09:48.164Z,10.2
2017-07-22T10:11:10.532Z,10.1
2017-07-22T10:12:10.132Z,10.2
2017-07-22T10:13:09.325Z,10.2
2017-07-22T10:14:08.702Z,10.1
2017-07-22T10:15:08.296Z,10.1
2017-07-22T10:16:07.645Z,10.1
2017-07-22T10:17:07.104Z,10.1
2017-07-22T10:18:06.193Z,10.1
2017-07-22T10:19:05.793Z,10
2017-07-22T10:19:36.198Z,10
2017-07-22T10:20:06.721Z,10
2017-07-22T10:22:04.077Z,10
2017-07-22T10:23:03.661Z,9.9
2017-07-22T10:24:02.743Z,9.9
2017-07-22T10:25:02.455Z,9.9
2017-07-22T10:27:00.923Z,9.8
2017-07-22T10:28:00.402Z,9.8
2017-07-22T10:29:00.110Z,9.8
2017-07-22T10:29:59.198Z,9.8
2017-07-22T10:30:58.932Z,9.8
2017-07-22T10:31:58.132Z,9.8
2017-07-22T10:32:57.843Z,9.8
2017-07-22T10:33:56.930Z,9.8
2017-07-22T10:34:56.642Z,9.7
2017-07-22T10:35:55.610Z,9.7
2017-07-22T10:36:55.207Z,9.7
2017-07-22T10:37:54.790Z,9.7
2017-07-22T10:38:25.864Z,9.7
2017-07-22T10:38:55.877Z,9.6
2017-07-22T10:39:26.379Z,9.6
2017-07-22T10:40:52.630Z,9.7
2017-07-22T10:41:52.333Z,9.7
2017-07-22T10:42:52.038Z,9.7
2017-07-22T10:43:51.135Z,9.7
2017-07-22T10:44:50.602Z,9.7
2017-07-22T10:45:49.960Z,9.8
2017-07-22T10:46:49.438Z,9.7
2017-07-22T10:47:49.035Z,9.7
2017-07-22T10:48:48.129Z,9.7
2017-07-22T10:49:18.540Z,9.7
2017-07-22T10:50:46.961Z,9.7
2017-07-22T10:51:46.544Z,9.8
2017-07-22T10:52:45.731Z,9.8
2017-07-22T10:53:45.315Z,9.8
2017-07-22T10:54:44.505Z,9.8
2017-07-22T10:55:44.212Z,9.8
2017-07-22T10:56:43.412Z,9.8
2017-07-22T10:57:43.119Z,9.8
2017-07-22T10:58:42.310Z,9.9
2017-07-22T11:00:41.407Z,9.8
2017-07-22T11:01:40.489Z,9.8
2017-07-22T11:02:40.067Z,9.8
2017-07-22T11:03:39.152Z,9.8
2017-07-22T11:04:38.739Z,9.8
2017-07-22T11:05:09.014Z,9.8
2017-07-22T11:05:39.780Z,9.8
2017-07-22T11:06:10.162Z,9.8
2017-07-22T11:06:40.675Z,9.8
2017-07-22T11:07:36.856Z,9.8
2017-07-22T11:09:35.967Z,9.8
2017-07-22T11:10:35.174Z,9.8
2017-07-22T11:11:34.891Z,9.8
2017-07-22T11:12:33.865Z,9.8
2017-07-22T11:13:33.455Z,9.8
2017-07-22T11:14:32.922Z,9.8
2017-07-22T11:15:31.898Z,9.9
2017-07-22T11:16:02.415Z,9.9
2017-07-22T11:17:31.317Z,9.9
2017-07-22T11:18:30.532Z,9.9
2017-07-22T11:19:29.728Z,9.9
2017-07-22T11:20:29.431Z,9.9
2017-07-22T11:21:28.527Z,10
2017-07-22T11:22:28.233Z,10
2017-07-22T11:23:27.322Z,10
2017-07-22T11:24:27.030Z,10
2017-07-22T11:25:26.106Z,10
2017-07-22T11:26:25.452Z,10
2017-07-22T11:27:24.931Z,10.1
2017-07-22T11:28:24.511Z,10.1
2017-07-22T11:29:23.982Z,10.1
2017-07-22T11:30:23.553Z,10.1
2017-07-22T11:31:22.771Z,10.1
2017-07-22T11:32:22.488Z,10
2017-07-22T11:33:21.471Z,10.1
2017-07-22T11:34:20.942Z,10.1
2017-07-22T11:35:20.537Z,10
2017-07-22T11:35:50.930Z,10
2017-07-22T11:37:19.316Z,10.1
2017-07-22T11:38:19.044Z,10.1
2017-07-22T11:39:18.250Z,10.1
2017-07-22T11:40:17.843Z,10.1
2017-07-22T11:41:17.057Z,10.1
2017-07-22T11:42:16.254Z,10.1
2017-07-22T11:43:15.953Z,10
2017-07-22T11:44:15.144Z,10.1
2017-07-22T11:45:14.730Z,10.1
2017-07-22T11:45:45.244Z,10.1
2017-07-22T11:46:15.759Z,10.1
2017-07-22T11:46:46.167Z,10.1
2017-07-22T11:47:16.577Z,10.1
2017-07-22T11:47:47.086Z,10.1
2017-07-22T11:48:17.602Z,10.1
2017-07-22T11:48:48.120Z,10.1
2017-07-22T11:49:18.638Z,10.1
2017-07-22T11:49:49.047Z,10.1
2017-07-22T11:51:10.774Z,10.2
2017-07-22T11:52:10.246Z,10.2
2017-07-22T11:53:09.955Z,10.3
2017-07-22T11:54:09.165Z,10.3
2017-07-22T11:55:08.861Z,10.3
2017-07-22T11:56:08.069Z,10.3
2017-07-22T11:57:07.537Z,10.4
2017-07-22T11:57:38.051Z,10.4
2017-07-22T11:58:08.549Z,10.4
2017-07-22T11:58:38.938Z,10.4
2017-07-22T11:59:09.449Z,10.5
2017-07-22T11:59:39.963Z,10.5
2017-07-22T12:01:05.335Z,10.5
2017-07-22T12:02:04.530Z,10.5
2017-07-22T12:03:04.243Z,10.5
2017-07-22T12:04:03.337Z,10.5
2017-07-22T12:05:03.057Z,10.6
2017-07-22T12:06:02.265Z,10.6
2017-07-22T12:07:01.981Z,10.5
2017-07-22T12:08:01.068Z,10.6
2017-07-22T12:09:00.656Z,10.6
2017-07-22T12:09:59.853Z,10.5
2017-07-22T12:10:59.553Z,10.5
2017-07-22T12:11:58.639Z,10.5
2017-07-22T12:12:58.215Z,10.4
2017-07-22T12:13:57.913Z,10.4
2017-07-22T12:14:57.006Z,10.4
2017-07-22T12:15:56.612Z,10.5
2017-07-22T12:16:55.815Z,10.4
2017-07-22T12:17:26.328Z,10.4
2017-07-22T12:17:56.610Z,10.3
2017-07-22T12:18:27.114Z,10.3
2017-07-22T12:18:57.619Z,10.3
2017-07-22T12:19:28.118Z,10.3
2017-07-22T12:19:58.625Z,10.2
2017-07-22T12:20:53.849Z,10.2
2017-07-22T12:21:52.924Z,10.2
2017-07-22T12:22:52.628Z,10.2
2017-07-22T12:23:51.699Z,10
2017-07-22T12:24:51.392Z,10
2017-07-22T12:25:50.597Z,10.1
2017-07-22T12:26:50.304Z,10
2017-07-22T12:27:49.392Z,9.9
2017-07-22T12:28:49.084Z,9.8
2017-07-22T12:29:19.470Z,9.8
2017-07-22T12:29:49.980Z,9.7
2017-07-22T12:30:20.386Z,9.7
2017-07-22T12:30:50.777Z,9.6
2017-07-22T12:31:21.183Z,9.6
2017-07-22T12:31:51.697Z,9.6
2017-07-22T12:32:46.750Z,9.6